createdAt,value
2018-06-02T00:02:14.183Z,9.20
2018-06-02T00:04:42.582Z,7.87
2018-06-02T00:07:11.001Z,7.77
2018-06-02T00:09:39.377Z,8.30
2018-06-02T00:12:07.948Z,8.20
2018-06-02T00:14:36.323Z,8.83
2018-06-02T00:17:04.890Z,8.37
2018-06-02T00:19:33.296Z,9.10
2018-06-02T00:22:01.670Z,8.30
2018-06-02T00:24:30.093Z,9.40
2018-06-02T00:26:58.460Z,8.80
2018-06-02T00:29:26.837Z,8.40
2018-06-02T00:31:55.220Z,8.50
2018-06-02T00:34:23.601Z,9.47
2018-06-02T00:36:51.988Z,8.80
2018-06-02T00:39:20.466Z,8.67
2018-06-02T00:41:48.848Z,8.50
2018-06-02T00:44:17.226Z,8.10
2018-06-02T00:46:45.598Z,8.70
2018-06-02T00:49:14.032Z,9.20
2018-06-02T00:51:42.413Z,8.73
2018-06-02T00:54:10.488Z,8.90
2018-06-02T00:56:38.871Z,8.20
2018-06-02T00:59:07.244Z,8.40
2018-06-02T01:01:35.705Z,9.00
2018-06-02T01:04:04.076Z,9.93
2018-06-02T01:06:32.526Z,7.33
2018-06-02T01:09:00.906Z,8.60
2018-06-02T01:11:29.057Z,8.97
2018-06-02T01:13:57.469Z,8.80
2018-06-02T01:16:25.854Z,8.60
2018-06-02T01:18:54.231Z,8.80
2018-06-02T01:21:22.621Z,7.90
2018-06-02T01:23:51.038Z,8.80
2018-06-02T01:26:19.423Z,8.03
2018-06-02T01:28:47.852Z,7.63
2018-06-02T01:31:16.237Z,6.47
2018-06-02T01:33:44.610Z,7.00
2018-06-02T01:36:12.993Z,7.07
2018-06-02T01:38:41.366Z,7.77
2018-06-02T01:41:09.770Z,6.93
2018-06-02T01:43:39.792Z,7.00
2018-06-02T01:46:08.179Z,6.43
2018-06-02T01:48:36.558Z,6.13
2018-06-02T01:51:04.961Z,7.60
2018-06-02T01:53:33.341Z,6.00
2018-06-02T01:56:01.715Z,6.50
2018-06-02T01:58:30.098Z,6.70
2018-06-02T02:00:58.474Z,5.77
2018-06-02T02:03:26.865Z,5.13
2018-06-02T02:05:55.247Z,5.80
2018-06-02T02:08:23.615Z,6.00
2018-06-02T02:10:52.017Z,6.23
2018-06-02T02:13:20.381Z,6.67
2018-06-02T02:15:48.757Z,6.23
2018-06-02T02:18:17.135Z,6.17
2018-06-02T02:20:45.703Z,5.97
2018-06-02T02:23:14.090Z,5.73
2018-06-02T02:25:42.476Z,5.93
2018-06-02T02:28:10.873Z,6.70
2018-06-02T02:30:39.255Z,6.70
2018-06-02T02:33:07.809Z,6.33
2018-06-02T02:35:36.241Z,5.70
2018-06-02T02:38:04.359Z,6.37
2018-06-02T02:40:32.731Z,6.43
2018-06-02T02:43:01.107Z,5.97
2018-06-02T02:45:29.478Z,6.00
2018-06-02T02:47:57.850Z,5.00
2018-06-02T02:50:26.234Z,6.77
2018-06-02T02:52:54.610Z,6.00
2018-06-02T02:55:23.015Z,6.23
2018-06-02T02:57:51.393Z,5.17
2018-06-02T03:00:19.765Z,5.40
2018-06-02T03:02:48.146Z,5.77
2018-06-02T03:05:16.541Z,5.30
2018-06-02T03:07:44.941Z,4.93
2018-06-02T03:10:13.394Z,4.77
2018-06-02T03:12:41.763Z,4.90
2018-06-02T03:15:10.264Z,5.00
2018-06-02T03:17:38.696Z,5.27
2018-06-02T03:20:07.253Z,5.23
2018-06-02T03:22:35.633Z,4.80
2018-06-02T03:25:04.022Z,4.73
2018-06-02T03:27:32.430Z,4.40
2018-06-02T03:30:00.796Z,5.73
2018-06-02T03:32:29.427Z,5.50
2018-06-02T03:34:57.829Z,4.70
2018-06-02T03:37:26.202Z,5.00
2018-06-02T03:39:54.584Z,5.07
2018-06-02T03:42:22.961Z,4.93
2018-06-02T03:44:51.365Z,5.70
2018-06-02T03:47:19.742Z,5.90
2018-06-02T03:49:48.147Z,3.90
2018-06-02T03:52:16.526Z,5.00
2018-06-02T03:54:44.917Z,4.87
2018-06-02T03:57:13.286Z,4.53
2018-06-02T03:59:41.657Z,4.57
2018-06-02T04:02:10.036Z,4.27
2018-06-02T04:04:38.429Z,5.20
2018-06-02T04:07:06.830Z,5.30
2018-06-02T04:09:35.237Z,3.57
2018-06-02T04:12:03.624Z,4.33
2018-06-02T04:14:32.010Z,4.60
2018-06-02T04:17:00.407Z,3.70
2018-06-02T04:19:28.795Z,3.70
2018-06-02T04:21:57.165Z,3.40
2018-06-02T04:24:25.543Z,3.40
2018-06-02T04:26:53.922Z,3.40
2018-06-02T04:29:22.292Z,3.60
2018-06-02T04:31:50.718Z,3.17
2018-06-02T04:34:19.100Z,3.30
2018-06-02T04:36:47.490Z,3.10
2018-06-02T04:39:15.889Z,3.47
2018-06-02T04:41:44.276Z,2.80
2018-06-02T04:44:12.665Z,3.87
2018-06-02T04:46:41.048Z,2.80
2018-06-02T04:49:09.451Z,2.77
2018-06-02T04:51:37.849Z,2.63
2018-06-02T04:54:06.240Z,2.80
2018-06-02T04:56:34.621Z,2.80
2018-06-02T04:59:02.999Z,3.03
2018-06-02T05:01:31.414Z,2.30
2018-06-02T05:03:59.797Z,2.50
2018-06-02T05:06:28.170Z,2.20
2018-06-02T05:08:56.551Z,2.00
2018-06-02T05:11:24.927Z,2.80
2018-06-02T05:13:53.295Z,2.50
2018-06-02T05:16:21.664Z,2.50
2018-06-02T05:18:50.061Z,2.50
2018-06-02T05:21:18.455Z,2.47
2018-06-02T05:23:46.826Z,2.27
2018-06-02T05:26:15.238Z,2.43
2018-06-02T05:28:43.651Z,2.50
2018-06-02T05:31:12.021Z,2.30
2018-06-02T05:33:40.420Z,3.23
2018-06-02T05:36:08.820Z,2.23
2018-06-02T05:38:37.196Z,2.13
2018-06-02T05:41:05.573Z,2.33
2018-06-02T05:43:33.965Z,2.00
2018-06-02T05:46:02.425Z,2.20
2018-06-02T05:48:30.945Z,2.77
2018-06-02T05:50:59.328Z,3.10
2018-06-02T05:53:27.721Z,2.10
2018-06-02T05:55:56.098Z,2.40
2018-06-02T05:58:24.485Z,2.47
2018-06-02T06:00:52.860Z,2.30
2018-06-02T06:03:21.233Z,2.50
2018-06-02T06:05:49.625Z,3.00
2018-06-02T06:08:18.009Z,2.30
2018-06-02T06:10:46.381Z,2.77
2018-06-02T06:13:14.759Z,2.67
2018-06-02T06:15:43.135Z,2.63
2018-06-02T06:18:11.517Z,3.00
2018-06-02T06:20:39.897Z,2.47
2018-06-02T06:23:08.272Z,1.87
2018-06-02T06:25:36.657Z,2.40
2018-06-02T06:28:05.569Z,3.37
2018-06-02T06:30:34.188Z,2.23
2018-06-02T06:33:02.677Z,2.17
2018-06-02T06:35:31.168Z,2.03
2018-06-02T06:37:59.537Z,2.10
2018-06-02T06:40:27.925Z,2.13
2018-06-02T06:42:56.335Z,2.33
2018-06-02T06:45:24.988Z,2.73
2018-06-02T06:47:53.376Z,2.70
2018-06-02T06:50:21.753Z,2.60
2018-06-02T06:52:50.151Z,2.77
2018-06-02T06:55:18.708Z,2.80
2018-06-02T06:57:47.196Z,2.20
2018-06-02T07:00:15.731Z,2.73
2018-06-02T07:02:44.107Z,2.87
2018-06-02T07:05:12.502Z,2.10
2018-06-02T07:07:40.876Z,1.80
2018-06-02T07:10:09.282Z,2.67
2018-06-02T07:12:37.652Z,2.27
2018-06-02T07:15:06.080Z,2.77
2018-06-02T07:17:34.459Z,2.17
2018-06-02T07:20:02.846Z,2.80
2018-06-02T07:22:31.225Z,4.20
2018-06-02T07:24:59.605Z,2.00
2018-06-02T07:27:28.019Z,1.70
2018-06-02T07:29:56.571Z,2.03
2018-06-02T07:32:24.960Z,2.27
2018-06-02T07:34:53.362Z,2.67
2018-06-02T07:37:21.741Z,2.17
2018-06-02T07:39:50.153Z,2.50
2018-06-02T07:42:18.537Z,2.10
2018-06-02T07:44:46.973Z,2.80
2018-06-02T07:47:15.360Z,2.07
2018-06-02T07:49:43.746Z,2.10
2018-06-02T07:52:12.320Z,2.50
2018-06-02T07:54:40.687Z,3.17
2018-06-02T07:57:09.057Z,2.00
2018-06-02T07:59:37.612Z,2.67
2018-06-02T08:02:05.999Z,2.20
2018-06-02T08:04:34.373Z,3.73
2018-06-02T08:07:02.820Z,4.33
2018-06-02T08:09:31.201Z,3.00
2018-06-02T08:11:59.609Z,2.40
2018-06-02T08:14:27.988Z,2.20
2018-06-02T08:16:56.358Z,2.70
2018-06-02T08:19:24.799Z,2.07
2018-06-02T08:21:53.189Z,2.97
2018-06-02T08:24:21.575Z,2.40
2018-06-02T08:26:49.995Z,2.40
2018-06-02T08:29:18.374Z,2.90
2018-06-02T08:31:46.749Z,2.30
2018-06-02T08:34:15.147Z,2.47
2018-06-02T08:36:43.551Z,2.53
2018-06-02T08:39:11.933Z,3.03
2018-06-02T08:41:40.308Z,2.40
2018-06-02T08:44:08.692Z,2.40
2018-06-02T08:46:37.092Z,2.47
2018-06-02T08:49:05.673Z,3.27
2018-06-02T08:51:34.043Z,2.13
2018-06-02T08:54:02.484Z,2.77
2018-06-02T08:56:31.012Z,2.37
2018-06-02T08:58:59.397Z,2.03
2018-06-02T09:01:27.781Z,2.70
2018-06-02T09:03:56.156Z,4.60
2018-06-02T09:06:24.527Z,3.30
2018-06-02T09:08:52.907Z,2.70
2018-06-02T09:11:21.295Z,2.93
2018-06-02T09:13:49.738Z,3.07
2018-06-02T09:16:18.138Z,3.20
2018-06-02T09:18:46.524Z,3.57
2018-06-02T09:21:14.933Z,4.03
2018-06-02T09:23:43.317Z,4.10
2018-06-02T09:26:11.706Z,4.73
2018-06-02T09:28:40.141Z,4.07
2018-06-02T09:31:08.532Z,4.17
2018-06-02T09:33:36.909Z,3.60
2018-06-02T09:36:04.724Z,3.50
2018-06-02T09:38:33.109Z,3.30
2018-06-02T09:41:01.481Z,3.77
2018-06-02T09:43:29.875Z,2.80
2018-06-02T09:45:58.264Z,2.83
2018-06-02T09:48:26.634Z,2.90
2018-06-02T09:50:55.205Z,3.23
2018-06-02T09:53:23.025Z,3.33
2018-06-02T09:55:51.446Z,3.27
2018-06-02T09:58:19.814Z,2.40
2018-06-02T10:00:48.174Z,2.93
2018-06-02T10:03:16.585Z,2.20
2018-06-02T10:05:44.985Z,2.93
2018-06-02T10:08:13.365Z,3.03
2018-06-02T10:10:41.747Z,3.40
2018-06-02T10:13:10.124Z,3.00
2018-06-02T10:15:38.174Z,3.30
2018-06-02T10:18:06.621Z,2.70
2018-06-02T10:20:35.012Z,3.00
2018-06-02T10:23:03.565Z,3.13
2018-06-02T10:25:31.956Z,2.90
2018-06-02T10:28:00.321Z,2.80
2018-06-02T10:30:28.908Z,2.80
2018-06-02T10:32:57.310Z,2.50
2018-06-02T10:35:25.736Z,3.27
2018-06-02T10:37:54.254Z,2.83
2018-06-02T10:40:22.709Z,3.17
2018-06-02T10:42:51.098Z,2.53
2018-06-02T10:45:19.513Z,3.33
2018-06-02T10:47:47.889Z,2.17
2018-06-02T10:50:16.320Z,3.30
2018-06-02T10:52:44.709Z,3.30
2018-06-02T10:55:13.160Z,2.77
2018-06-02T10:57:41.558Z,3.77
2018-06-02T11:00:09.965Z,3.10
2018-06-02T11:02:38.364Z,3.17
2018-06-02T11:05:06.786Z,2.70
2018-06-02T11:07:35.188Z,2.60
2018-06-02T11:10:03.341Z,2.80
2018-06-02T11:12:31.784Z,2.23
2018-06-02T11:15:00.165Z,3.70
2018-06-02T11:17:28.546Z,3.30
2018-06-02T11:19:56.941Z,3.30
2018-06-02T11:22:25.310Z,2.83
2018-06-02T11:24:53.935Z,3.60
2018-06-02T11:27:22.329Z,3.53
2018-06-02T11:29:50.698Z,3.33
2018-06-02T11:32:19.082Z,3.30
2018-06-02T11:34:47.443Z,3.07
2018-06-02T11:37:15.814Z,3.70
2018-06-02T11:39:44.192Z,3.83
2018-06-02T11:42:12.567Z,3.10
2018-06-02T11:44:41.650Z,3.60
2018-06-02T11:47:10.136Z,3.53
2018-06-02T11:49:38.552Z,3.50
2018-06-02T11:52:06.949Z,3.43
2018-06-02T11:54:35.325Z,3.77
2018-06-02T11:57:03.698Z,3.97
2018-06-02T11:59:32.088Z,3.43
2018-06-02T12:02:00.461Z,4.20
2018-06-02T12:04:29.051Z,4.27
2018-06-02T12:06:56.917Z,3.13
2018-06-02T12:09:25.470Z,5.00
2018-06-02T12:11:53.961Z,3.77
2018-06-02T12:14:22.543Z,4.30
2018-06-02T12:16:50.936Z,3.97
2018-06-02T12:19:19.314Z,4.10
2018-06-02T12:21:47.892Z,4.67
2018-06-02T12:24:16.276Z,4.53
2018-06-02T12:26:44.638Z,5.00
2018-06-02T12:29:13.018Z,4.23
2018-06-02T12:31:41.441Z,4.30
2018-06-02T12:34:09.828Z,4.30
2018-06-02T12:36:38.227Z,4.63
2018-06-02T12:39:06.049Z,4.33
2018-06-02T12:41:34.745Z,4.60
2018-06-02T12:44:03.278Z,4.80
2018-06-02T12:46:31.664Z,4.83
2018-06-02T12:49:00.042Z,4.70
2018-06-02T12:51:28.435Z,5.07
2018-06-02T12:53:56.817Z,5.27
2018-06-02T12:56:25.235Z,5.80
2018-06-02T12:58:53.612Z,5.27
2018-06-02T13:01:21.997Z,4.70
2018-06-02T13:03:50.394Z,4.33
2018-06-02T13:06:18.771Z,5.23
2018-06-02T13:08:47.147Z,5.27
2018-06-02T13:11:15.525Z,6.10
2018-06-02T13:13:43.888Z,5.00
2018-06-02T13:16:12.268Z,5.03
2018-06-02T13:18:40.649Z,6.03
2018-06-02T13:21:09.067Z,5.90
2018-06-02T13:23:37.614Z,5.63
2018-06-02T13:26:05.996Z,5.30
2018-06-02T13:28:34.370Z,5.77
2018-06-02T13:31:02.759Z,5.67
2018-06-02T13:33:31.132Z,5.53
2018-06-02T13:35:59.497Z,5.13
2018-06-02T13:38:27.881Z,5.50
2018-06-02T13:40:56.281Z,5.50
2018-06-02T13:43:24.673Z,5.10
2018-06-02T13:45:53.047Z,5.73
2018-06-02T13:48:21.521Z,5.83
2018-06-02T13:50:49.959Z,5.53
2018-06-02T13:53:18.352Z,5.80
2018-06-02T13:55:46.732Z,5.10
2018-06-02T13:58:15.110Z,5.93
2018-06-02T14:00:43.501Z,6.00
2018-06-02T14:03:11.868Z,4.80
2018-06-02T14:05:40.301Z,6.00
2018-06-02T14:08:08.741Z,6.50
2018-06-02T14:10:37.151Z,5.80
2018-06-02T14:13:05.287Z,5.60
2018-06-02T14:15:33.667Z,5.07
2018-06-02T14:18:02.108Z,4.80
2018-06-02T14:20:30.505Z,5.90
2018-06-02T14:22:58.875Z,6.47
2018-06-02T14:25:27.290Z,5.70
2018-06-02T14:27:55.830Z,4.87
2018-06-02T14:30:27.169Z,5.10
2018-06-02T14:32:55.629Z,5.20
2018-06-02T14:35:28.023Z,4.60
2018-06-02T14:37:56.411Z,5.40
2018-06-02T14:40:26.592Z,6.07
2018-06-02T14:42:55.054Z,5.17
2018-06-02T14:45:27.048Z,5.30
2018-06-02T14:47:56.613Z,5.47
2018-06-02T14:50:24.995Z,6.67
2018-06-02T14:52:53.373Z,5.43
2018-06-02T14:55:22.304Z,5.67
2018-06-02T14:57:50.703Z,5.47
2018-06-02T15:00:22.008Z,5.50
2018-06-02T15:02:50.394Z,4.70
2018-06-02T15:05:22.864Z,5.73
2018-06-02T15:07:51.239Z,5.50
2018-06-02T15:10:24.507Z,5.17
2018-06-02T15:12:52.889Z,5.30
2018-06-02T15:15:24.382Z,4.30
2018-06-02T15:17:52.761Z,3.80
2018-06-02T15:20:23.670Z,3.57
2018-06-02T15:22:52.093Z,2.80
2018-06-02T15:25:24.712Z,2.97
2018-06-02T15:27:53.171Z,3.40
2018-06-02T15:30:22.820Z,2.87
2018-06-02T15:32:51.255Z,3.00
2018-06-02T15:35:24.886Z,4.27
2018-06-02T15:37:53.284Z,3.57
2018-06-02T15:40:22.410Z,4.50
2018-06-02T15:42:50.792Z,3.83
2018-06-02T15:45:19.188Z,3.70
2018-06-02T15:47:47.647Z,4.00
2018-06-02T15:50:16.565Z,4.47
2018-06-02T15:52:46.131Z,4.57
2018-06-02T15:55:16.385Z,4.70
2018-06-02T15:57:46.338Z,4.97
2018-06-02T16:00:19.596Z,5.50
2018-06-02T16:02:47.993Z,5.20
2018-06-02T16:05:21.074Z,4.70
2018-06-02T16:07:49.452Z,4.83
2018-06-02T16:10:17.830Z,4.50
2018-06-02T16:12:46.214Z,4.17
2018-06-02T16:15:15.948Z,4.90
2018-06-02T16:17:44.328Z,3.97
2018-06-02T16:20:16.460Z,3.77
2018-06-02T16:22:44.842Z,3.97
2018-06-02T16:27:59.400Z,3.90
2018-06-02T16:30:28.439Z,4.10
2018-06-02T16:32:56.829Z,2.83
2018-06-02T16:35:25.214Z,3.07
2018-06-02T16:37:53.668Z,2.80
2018-06-02T16:40:22.043Z,3.60
2018-06-02T16:42:50.435Z,3.17
2018-06-02T16:47:55.908Z,3.60
2018-06-02T16:50:24.746Z,3.80
2018-06-02T16:52:53.115Z,2.47
2018-06-02T16:55:21.668Z,4.20
2018-06-02T16:57:50.037Z,2.63
2018-06-02T17:00:22.082Z,3.63
2018-06-02T17:02:50.448Z,4.07
2018-06-02T17:05:21.085Z,3.50
2018-06-02T17:07:49.461Z,3.80
2018-06-02T17:13:05.567Z,3.93
2018-06-02T17:15:48.969Z,3.73
2018-06-02T17:18:17.381Z,4.43
2018-06-02T17:21:00.758Z,4.17
2018-06-02T17:23:29.188Z,4.10
2018-06-02T17:25:57.562Z,4.80
2018-06-02T17:28:25.943Z,3.53
2018-06-02T17:30:54.399Z,3.73
2018-06-02T17:33:22.800Z,4.23
2018-06-02T17:35:51.183Z,3.57
2018-06-02T17:38:19.818Z,4.80
2018-06-02T17:40:48.191Z,4.13
2018-06-02T17:43:16.568Z,4.20
2018-06-02T17:45:45.030Z,4.50
2018-06-02T17:48:13.413Z,3.70
2018-06-02T17:50:49.991Z,4.10
2018-06-02T17:53:18.389Z,4.07
2018-06-02T17:56:01.195Z,3.73
2018-06-02T17:58:29.601Z,3.13
2018-06-02T18:00:57.997Z,3.63
2018-06-02T18:03:26.395Z,3.87
2018-06-02T18:05:54.824Z,2.87
2018-06-02T18:08:23.214Z,3.20
2018-06-02T18:10:51.738Z,4.47
2018-06-02T18:13:20.164Z,3.27
2018-06-02T18:15:48.756Z,3.20
2018-06-02T18:18:17.167Z,3.00
2018-06-02T18:20:45.537Z,3.70
2018-06-02T18:23:13.925Z,3.30
2018-06-02T18:25:42.307Z,3.33
2018-06-02T18:28:10.686Z,3.20
2018-06-02T18:30:40.192Z,2.77
2018-06-02T18:33:08.562Z,3.70
2018-06-02T18:35:36.945Z,3.60
2018-06-02T18:38:05.054Z,4.03
2018-06-02T18:40:33.453Z,3.30
2018-06-02T18:43:01.892Z,3.07
2018-06-02T18:45:30.417Z,2.70
2018-06-02T18:47:58.787Z,3.70
2018-06-02T18:50:36.177Z,2.80
2018-06-02T18:53:04.572Z,2.80
2018-06-02T18:55:37.328Z,3.07
2018-06-02T18:58:12.116Z,2.70
2018-06-02T19:00:40.511Z,3.30
2018-06-02T19:03:08.895Z,3.20
2018-06-02T19:05:37.342Z,3.73
2018-06-02T19:08:05.957Z,3.33
2018-06-02T19:10:34.323Z,3.70
2018-06-02T19:13:02.695Z,2.60
2018-06-02T19:15:39.217Z,2.93
2018-06-02T19:18:07.619Z,2.33
2018-06-02T19:23:11.662Z,2.60
2018-06-02T19:25:40.967Z,3.00
2018-06-02T19:28:09.336Z,3.20
2018-06-02T19:30:37.730Z,2.67
2018-06-02T19:33:06.103Z,2.77
2018-06-02T19:35:34.248Z,2.43
2018-06-02T19:38:02.609Z,3.97
2018-06-02T19:40:43.649Z,2.13
2018-06-02T19:43:12.178Z,2.97
2018-06-02T19:45:40.542Z,2.30
2018-06-02T19:48:08.953Z,2.40
2018-06-02T19:50:37.943Z,1.93
2018-06-02T19:53:06.316Z,2.33
2018-06-02T19:55:40.209Z,2.70
2018-06-02T19:58:08.575Z,2.43
2018-06-02T20:00:36.989Z,2.50
2018-06-02T20:03:05.373Z,2.43
2018-06-02T20:05:38.260Z,1.90
2018-06-02T20:08:06.632Z,2.60
2018-06-02T20:10:35.059Z,2.13
2018-06-02T20:13:03.437Z,2.30
2018-06-02T20:15:31.811Z,2.60
2018-06-02T20:18:00.190Z,2.70
2018-06-02T20:23:08.113Z,1.67
2018-06-02T20:25:45.773Z,2.53
2018-06-02T20:28:14.155Z,2.10
2018-06-02T20:30:43.349Z,2.10
2018-06-02T20:33:11.721Z,1.97
2018-06-02T20:35:40.104Z,2.30
2018-06-02T20:38:08.502Z,1.80
2018-06-02T20:43:21.841Z,2.00
2018-06-02T20:45:50.218Z,2.70
2018-06-02T20:48:18.590Z,2.60
2018-06-02T20:50:46.977Z,1.70
2018-06-02T20:53:15.372Z,1.90
2018-06-02T20:55:43.941Z,1.83
2018-06-02T20:58:12.331Z,2.00
2018-06-02T21:00:40.742Z,2.80
2018-06-02T21:03:09.125Z,1.57
2018-06-02T21:05:37.525Z,2.43
2018-06-02T21:08:05.899Z,2.30
2018-06-02T21:10:34.284Z,2.23
2018-06-02T21:13:02.662Z,2.17
2018-06-02T21:15:31.064Z,2.67
2018-06-02T21:17:59.496Z,2.10
2018-06-02T21:26:13.581Z,2.13
2018-06-02T21:28:42.060Z,2.00
2018-06-02T21:31:10.458Z,2.70
2018-06-02T21:33:38.838Z,2.80
2018-06-02T21:36:07.216Z,2.50
2018-06-02T21:38:35.591Z,2.50
2018-06-02T21:41:03.966Z,2.30
2018-06-02T21:43:32.350Z,1.90
2018-06-02T21:46:00.749Z,2.33
2018-06-02T21:48:29.113Z,1.90
2018-06-02T21:50:57.480Z,2.23
2018-06-02T21:53:25.881Z,1.80
2018-06-02T21:55:54.243Z,1.60
2018-06-02T21:58:22.611Z,2.10
2018-06-02T22:00:51.293Z,1.87
2018-06-02T22:03:19.672Z,1.73
2018-06-02T22:05:48.059Z,1.73
2018-06-02T22:08:16.098Z,2.10
2018-06-02T22:10:44.481Z,2.40
2018-06-02T22:13:12.863Z,1.80
2018-06-02T22:15:40.958Z,2.30
2018-06-02T22:18:09.344Z,2.20
2018-06-02T22:20:37.718Z,2.20
2018-06-02T22:23:06.093Z,1.87
2018-06-02T22:25:34.545Z,2.23
2018-06-02T22:28:02.918Z,2.10
2018-06-02T22:30:31.299Z,3.00
2018-06-02T22:32:59.689Z,2.20
2018-06-02T22:35:36.871Z,2.63
2018-06-02T22:38:05.241Z,2.30
2018-06-02T22:40:47.338Z,1.90
2018-06-02T22:43:15.727Z,2.70
2018-06-02T22:45:44.095Z,1.93
2018-06-02T22:48:12.473Z,2.53
2018-06-02T22:50:41.942Z,1.60
2018-06-02T22:53:10.038Z,2.37
2018-06-02T22:55:37.881Z,2.63
2018-06-02T22:58:06.261Z,2.10
2018-06-02T23:03:11.208Z,2.27
2018-06-02T23:05:39.324Z,2.50
2018-06-02T23:08:07.708Z,2.70
2018-06-02T23:10:35.779Z,2.20
2018-06-02T23:13:04.157Z,1.97
2018-06-02T23:15:32.536Z,2.30
2018-06-02T23:18:00.921Z,2.10
2018-06-02T23:20:30.203Z,2.50
2018-06-02T23:22:58.607Z,2.10
2018-06-02T23:25:26.976Z,1.97
2018-06-02T23:27:55.372Z,2.50
2018-06-02T23:30:32.302Z,2.27
2018-06-02T23:33:00.661Z,2.37
2018-06-02T23:35:35.486Z,2.07
2018-06-02T23:38:03.868Z,2.40
2018-06-02T23:40:35.603Z,3.00
2018-06-02T23:43:04.030Z,2.00
2018-06-02T23:45:36.480Z,2.80
2018-06-02T23:48:04.310Z,2.23
2018-06-02T23:50:34.218Z,2.00
2018-06-02T23:53:02.598Z,2.13
2018-06-02T23:55:33.225Z,2.13
2018-06-02T23:58:01.601Z,2.60
